createdAt,value
2022-11-24T00:04:02.372Z,1.94
2022-11-24T00:09:02.811Z,1.96
2022-11-24T00:14:02.494Z,1.83
2022-11-24T00:19:04.030Z,1.81
2022-11-24T00:24:03.378Z,2.14
2022-11-24T00:29:04.782Z,2.08
2022-11-24T00:34:07.185Z,2.12
2022-11-24T00:39:10.332Z,2.32
2022-11-24T00:44:09.558Z,1.92
2022-11-24T00:49:08.575Z,2.09
2022-11-24T00:54:07.587Z,2.25
2022-11-24T00:59:06.575Z,2.23
2022-11-24T01:04:06.139Z,2.53
2022-11-24T01:09:04.938Z,2.33
2022-11-24T01:14:03.919Z,1.92
2022-11-24T01:19:03.979Z,1.87
2022-11-24T01:24:03.037Z,1.85
2022-11-24T01:29:01.953Z,2.08
2022-11-24T01:34:01.045Z,1.61
2022-11-24T01:39:00.122Z,1.36
2022-11-24T01:43:59.162Z,1.29
2022-11-24T01:49:18.257Z,1.72
2022-11-24T01:54:32.308Z,1.35
2022-11-24T01:59:31.737Z,1.32
2022-11-24T02:04:34.411Z,1.40
2022-11-24T02:09:45.860Z,1.63
2022-11-24T02:14:46.096Z,1.15
2022-11-24T02:19:59.940Z,1.15
2022-11-24T02:25:23.885Z,1.01
2022-11-24T02:30:23.515Z,1.26
2022-11-24T02:35:22.389Z,0.93
2022-11-24T02:40:25.610Z,1.07
2022-11-24T02:45:26.108Z,1.41
2022-11-24T02:50:25.161Z,1.37
2022-11-24T02:55:24.132Z,1.36
2022-11-24T03:00:23.177Z,1.68
2022-11-24T03:05:22.187Z,1.49
2022-11-24T03:10:21.092Z,1.41
2022-11-24T03:15:19.970Z,1.47
2022-11-24T03:20:18.905Z,1.54
2022-11-24T03:25:18.170Z,1.71
2022-11-24T03:30:17.288Z,1.61
2022-11-24T03:35:16.121Z,1.82
2022-11-24T03:40:15.221Z,1.99
2022-11-24T03:45:45.524Z,1.91
2022-11-24T03:50:33.731Z,1.75
2022-11-24T03:55:32.708Z,1.97
2022-11-24T04:00:31.869Z,1.72
2022-11-24T04:05:30.771Z,1.82
2022-11-24T04:10:30.487Z,1.88
2022-11-24T04:15:29.301Z,2.31
2022-11-24T04:20:28.275Z,1.95
2022-11-24T04:25:28.074Z,1.90
2022-11-24T04:30:28.630Z,2.01
2022-11-24T04:35:28.320Z,2.18
2022-11-24T04:40:27.270Z,1.92
2022-11-24T04:45:26.206Z,1.98
2022-11-24T04:50:25.453Z,2.28
2022-11-24T04:55:24.349Z,2.07
2022-11-24T05:00:23.444Z,2.32
2022-11-24T05:05:22.270Z,2.42
2022-11-24T05:10:36.450Z,2.58
2022-11-24T05:15:37.710Z,2.24
2022-11-24T05:20:36.691Z,2.14
2022-11-24T05:25:36.385Z,2.64
2022-11-24T05:30:36.080Z,6.92
2022-11-24T05:35:36.409Z,8.88
2022-11-24T05:40:35.167Z,9.85
2022-11-24T05:45:34.006Z,7.74
2022-11-24T05:50:33.266Z,5.21
2022-11-24T05:55:32.739Z,4.03
2022-11-24T06:00:33.132Z,3.43
2022-11-24T06:05:32.774Z,3.46
2022-11-24T06:10:31.670Z,2.52
2022-11-24T06:15:30.583Z,2.96
2022-11-24T06:20:32.638Z,2.61
2022-11-24T06:25:31.786Z,3.03
2022-11-24T06:30:30.488Z,3.32
2022-11-24T06:35:29.399Z,3.01
2022-11-24T06:40:28.367Z,3.22
2022-11-24T06:45:27.248Z,3.31
2022-11-24T06:50:32.089Z,3.18
2022-11-24T06:55:32.331Z,3.00
2022-11-24T07:00:34.243Z,3.19
2022-11-24T07:05:33.125Z,3.40
2022-11-24T07:10:32.085Z,2.93
2022-11-24T07:15:31.299Z,2.97
2022-11-24T07:20:30.596Z,3.17
2022-11-24T07:25:29.625Z,3.06
2022-11-24T07:30:28.540Z,3.02
2022-11-24T07:35:27.788Z,3.28
2022-11-24T07:40:27.602Z,3.34
2022-11-24T07:45:26.464Z,3.24
2022-11-24T07:50:25.792Z,2.85
2022-11-24T07:55:24.627Z,3.22
2022-11-24T08:00:23.799Z,3.00
2022-11-24T08:05:22.788Z,2.93
2022-11-24T08:10:21.727Z,3.16
2022-11-24T08:15:21.042Z,3.38
2022-11-24T08:20:20.149Z,3.42
2022-11-24T08:25:19.528Z,3.36
2022-11-24T08:30:20.073Z,3.74
2022-11-24T08:35:19.190Z,3.77
2022-11-24T08:40:18.301Z,3.67
2022-11-24T08:45:22.477Z,3.72
2022-11-24T08:50:23.677Z,3.38
2022-11-24T08:55:22.741Z,3.37
2022-11-24T09:00:24.030Z,3.56
2022-11-24T09:05:50.667Z,3.74
2022-11-24T09:10:42.069Z,3.83
2022-11-24T09:15:40.882Z,3.84
2022-11-24T09:20:40.835Z,3.94
2022-11-24T09:25:39.553Z,4.03
2022-11-24T09:30:38.845Z,4.13
2022-11-24T09:35:38.752Z,4.03
2022-11-24T09:40:37.775Z,4.10
2022-11-24T09:46:05.389Z,4.18
2022-11-24T09:51:05.752Z,4.06
2022-11-24T09:56:24.949Z,4.45
2022-11-24T10:01:29.711Z,4.27
2022-11-24T10:06:45.336Z,4.24
2022-11-24T10:12:14.858Z,4.38
2022-11-24T10:17:47.921Z,4.67
2022-11-24T10:23:02.300Z,4.64
2022-11-24T10:28:09.914Z,4.57
2022-11-24T10:33:18.884Z,4.98
2022-11-24T10:38:37.488Z,4.82
2022-11-24T10:43:37.263Z,5.08
2022-11-24T10:48:51.315Z,5.24
2022-11-24T10:53:55.523Z,5.32
2022-11-24T10:58:54.453Z,5.34
2022-11-24T11:03:56.424Z,5.26
2022-11-24T11:09:07.830Z,5.40
2022-11-24T11:14:09.138Z,5.27
2022-11-24T11:25:02.536Z,4.99
2022-11-24T11:35:40.458Z,5.82
2022-11-24T11:40:42.960Z,5.72
2022-11-24T11:45:46.111Z,5.77
2022-11-24T11:51:22.963Z,5.73
2022-11-24T11:56:33.030Z,5.71
2022-11-24T12:01:47.078Z,5.92
2022-11-24T12:06:48.588Z,5.88
2022-11-24T12:11:59.816Z,5.71
2022-11-24T12:16:58.703Z,5.51
2022-11-24T12:22:10.094Z,5.61
2022-11-24T12:27:24.154Z,5.70
2022-11-24T12:32:41.849Z,5.78
2022-11-24T12:37:43.669Z,5.90
2022-11-24T12:42:51.753Z,5.99
2022-11-24T12:48:00.510Z,6.06
2022-11-24T12:53:24.262Z,6.23
2022-11-24T12:58:37.279Z,6.62
2022-11-24T13:03:42.585Z,6.24
2022-11-24T13:08:41.812Z,6.48
2022-11-24T13:14:03.986Z,6.56
2022-11-24T13:19:34.191Z,6.57
2022-11-24T13:24:37.050Z,6.50
2022-11-24T13:29:46.831Z,6.72
2022-11-24T13:34:45.868Z,6.76
2022-11-24T13:39:51.335Z,6.64
2022-11-24T13:44:57.413Z,6.64
2022-11-24T13:49:57.254Z,6.56
2022-11-24T13:54:58.134Z,6.84
2022-11-24T14:00:02.137Z,6.68
2022-11-24T14:05:03.587Z,6.63
2022-11-24T14:10:02.295Z,6.65
2022-11-24T14:15:36.886Z,6.50
2022-11-24T14:20:35.806Z,6.60
2022-11-24T14:25:35.677Z,6.46
2022-11-24T14:30:34.493Z,6.28
2022-11-24T14:35:35.059Z,6.24
2022-11-24T14:40:43.120Z,6.34
2022-11-24T14:45:55.354Z,6.47
2022-11-24T14:51:04.418Z,6.36
2022-11-24T14:56:21.915Z,6.38
2022-11-24T15:01:30.292Z,6.36
2022-11-24T15:06:29.229Z,6.49
2022-11-24T15:11:32.165Z,6.45
2022-11-24T15:16:31.756Z,6.35
2022-11-24T15:21:32.087Z,6.34
2022-11-24T15:26:35.486Z,6.43
2022-11-24T15:31:40.644Z,6.41
2022-11-24T15:36:39.425Z,6.33
2022-11-24T15:41:38.463Z,6.46
2022-11-24T15:46:40.296Z,6.34
2022-11-24T15:51:42.662Z,6.48
2022-11-24T15:56:41.982Z,6.53
2022-11-24T16:01:42.754Z,6.55
2022-11-24T16:06:41.594Z,6.71
2022-11-24T16:11:40.320Z,6.33
2022-11-24T16:16:40.872Z,6.54
2022-11-24T16:21:39.815Z,6.11
2022-11-24T16:26:38.706Z,6.12
2022-11-24T16:31:37.976Z,5.96
2022-11-24T16:36:36.674Z,6.03
2022-11-24T16:41:35.978Z,5.98
2022-11-24T16:46:34.930Z,5.73
2022-11-24T16:51:35.087Z,5.59
2022-11-24T16:56:34.323Z,5.77
2022-11-24T17:01:33.430Z,5.66
2022-11-24T17:06:33.471Z,5.45
2022-11-24T17:11:32.367Z,5.50
2022-11-24T17:16:31.229Z,5.60
2022-11-24T17:21:30.316Z,5.89
2022-11-24T17:26:29.411Z,5.65
2022-11-24T17:31:28.205Z,5.73
2022-11-24T17:36:27.696Z,5.72
2022-11-24T17:41:26.857Z,5.74
2022-11-24T17:46:27.695Z,5.68
2022-11-24T17:51:27.268Z,5.85
2022-11-24T17:56:27.930Z,5.75
2022-11-24T18:01:31.565Z,5.72
2022-11-24T18:06:30.518Z,5.87
2022-11-24T18:11:32.167Z,5.92
2022-11-24T18:16:33.688Z,5.57
2022-11-24T18:21:39.613Z,5.55
2022-11-24T18:26:42.927Z,5.34
2022-11-24T18:31:42.209Z,5.38
2022-11-24T18:36:41.230Z,5.70
2022-11-24T18:41:40.348Z,5.31
2022-11-24T18:46:39.479Z,5.25
2022-11-24T18:51:38.341Z,5.16
2022-11-24T18:56:37.428Z,5.39
2022-11-24T19:01:37.917Z,5.38
2022-11-24T19:06:37.930Z,5.46
2022-11-24T19:11:39.324Z,5.51
2022-11-24T19:16:38.440Z,5.68
2022-11-24T19:21:38.939Z,5.32
2022-11-24T19:26:38.145Z,5.52
2022-11-24T19:31:41.010Z,5.71
2022-11-24T19:36:40.811Z,6.06
2022-11-24T19:41:39.855Z,6.02
2022-11-24T19:46:39.865Z,5.93
2022-11-24T19:51:39.995Z,5.77
2022-11-24T19:56:38.835Z,5.87
2022-11-24T20:01:40.825Z,5.97
2022-11-24T20:06:42.492Z,6.14
2022-11-24T20:11:41.714Z,5.97
2022-11-24T20:16:41.091Z,5.78
2022-11-24T20:21:41.699Z,5.95
2022-11-24T20:26:44.050Z,6.12
2022-11-24T20:31:46.096Z,5.93
2022-11-24T20:36:48.693Z,5.95
2022-11-24T20:41:47.434Z,5.82
2022-11-24T20:46:48.138Z,5.99
2022-11-24T20:51:54.351Z,5.98
2022-11-24T20:56:53.129Z,6.00
2022-11-24T21:01:55.169Z,6.06
2022-11-24T21:06:54.839Z,6.21
2022-11-24T21:11:54.763Z,6.21
2022-11-24T21:16:53.592Z,6.06
2022-11-24T21:21:52.720Z,6.29
2022-11-24T21:26:52.933Z,6.25
2022-11-24T21:31:52.132Z,6.30
2022-11-24T21:36:51.016Z,6.28
2022-11-24T21:41:50.030Z,6.47
2022-11-24T21:46:54.302Z,6.20
2022-11-24T21:51:56.034Z,6.09
2022-11-24T21:56:55.625Z,6.00
2022-11-24T22:01:54.529Z,6.19
2022-11-24T22:06:53.718Z,6.38
2022-11-24T22:11:53.142Z,5.99
2022-11-24T22:16:51.919Z,6.08
2022-11-24T22:21:50.692Z,6.15
2022-11-24T22:26:49.406Z,5.95
2022-11-24T22:31:48.227Z,6.12
2022-11-24T22:36:46.981Z,5.93
2022-11-24T22:41:45.762Z,6.10
2022-11-24T22:46:44.608Z,6.09
2022-11-24T22:51:43.314Z,6.04
2022-11-24T22:56:42.073Z,6.08
2022-11-24T23:01:40.849Z,6.10
2022-11-24T23:06:39.695Z,6.04
2022-11-24T23:11:40.829Z,6.18
2022-11-24T23:16:40.003Z,5.92
2022-11-24T23:21:39.068Z,5.82
2022-11-24T23:26:40.048Z,5.88
2022-11-24T23:31:40.260Z,5.92
2022-11-24T23:36:39.205Z,5.66
2022-11-24T23:41:38.396Z,5.29
2022-11-24T23:46:37.407Z,5.64
2022-11-24T23:51:36.158Z,5.52
2022-11-24T23:56:34.998Z,5.43
